Terminal Aerodrome Forecast
Issued by NWS Sioux Falls, SD

Home | Current Version | Previous Version | Text Only | Print | Product List | Glossary On
Versions: 1 2 3 4 5 6 7 8 9 10 11 12 13 14 15 16 17 18 19 20 21 22 23 24 25 26 27 28 29 30 31 32 33 34 35 36 37 38 39
000
FTUS43 KFSD 241744
TAFSUX
TAF
KSUX 241744Z 2418/2518 10010KT P6SM OVC010
     FM242100 11006KT P6SM OVC018
     FM242300 12005KT P6SM OVC025
     FM250200 VRB03KT 6SM BR OVC015
     FM250400 02004KT 5SM BR OVC012
      TEMPO 2505/2509 4SM -SHRA BR OVC009
     FM250900 01005KT 2SM BR OVC004
     FM251400 28005KT 5SM BR OVC015
     FM251700 20007KT P6SM OVC025=

USA.gov is the U.S. government's official web portal to all federal, state and local government web resources and services.